sensor_id;sensor_type;location;lat;lon;timestamp;pressure;altitude;pressure_sealevel;temperature;humidity
32197;BME280;18697;42.770;23.400;2023-09-30T00:00:05;95970.44;;;21.86;45.87
32197;BME280;18697;42.770;23.400;2023-09-30T00:02:33;95972.72;;;21.09;46.84
32197;BME280;18697;42.770;23.400;2023-09-30T00:04:58;95973.28;;;21.38;47.00
32197;BME280;18697;42.770;23.400;2023-09-30T00:07:24;95968.69;;;21.35;47.06
32197;BME280;18697;42.770;23.400;2023-09-30T00:09:50;95970.91;;;21.42;46.70
32197;BME280;18697;42.770;23.400;2023-09-30T00:12:17;95965.06;;;21.04;46.85
32197;BME280;18697;42.770;23.400;2023-09-30T00:14:42;95967.72;;;20.91;48.21
32197;BME280;18697;42.770;23.400;2023-09-30T00:17:08;95962.81;;;20.61;48.01
32197;BME280;18697;42.770;23.400;2023-09-30T00:19:33;95964.28;;;20.21;49.98
32197;BME280;18697;42.770;23.400;2023-09-30T00:21:59;95969.31;;;20.45;49.28
32197;BME280;18697;42.770;23.400;2023-09-30T00:24:25;95964.50;;;20.40;49.56
32197;BME280;18697;42.770;23.400;2023-09-30T00:26:54;95964.94;;;19.97;50.70
32197;BME280;18697;42.770;23.400;2023-09-30T00:29:19;95961.59;;;20.05;50.34
32197;BME280;18697;42.770;23.400;2023-09-30T00:31:45;95963.81;;;20.12;50.22
32197;BME280;18697;42.770;23.400;2023-09-30T00:34:10;95959.66;;;20.24;49.50
32197;BME280;18697;42.770;23.400;2023-09-30T00:36:35;95967.56;;;20.42;49.82
32197;BME280;18697;42.770;23.400;2023-09-30T00:39:01;95965.41;;;20.59;49.25
32197;BME280;18697;42.770;23.400;2023-09-30T00:41:26;95960.16;;;20.75;48.65
32197;BME280;18697;42.770;23.400;2023-09-30T00:43:52;95968.56;;;20.80;48.35
32197;BME280;18697;42.770;23.400;2023-09-30T00:46:26;95969.06;;;20.84;48.65
32197;BME280;18697;42.770;23.400;2023-09-30T00:48:53;95965.47;;;20.84;48.87
32197;BME280;18697;42.770;23.400;2023-09-30T00:51:19;95962.28;;;20.98;48.30
32197;BME280;18697;42.770;23.400;2023-09-30T00:53:45;95961.75;;;21.00;47.62
32197;BME280;18697;42.770;23.400;2023-09-30T00:56:11;95963.59;;;20.92;48.35
32197;BME280;18697;42.770;23.400;2023-09-30T00:58:38;95962.34;;;20.87;48.43
32197;BME280;18697;42.770;23.400;2023-09-30T01:01:03;95965.09;;;20.98;48.02
32197;BME280;18697;42.770;23.400;2023-09-30T01:03:29;95974.91;;;20.92;48.43
32197;BME280;18697;42.770;23.400;2023-09-30T01:05:55;95958.44;;;20.96;48.53
32197;BME280;18697;42.770;23.400;2023-09-30T01:08:21;95964.63;;;20.94;48.37
32197;BME280;18697;42.770;23.400;2023-09-30T01:10:47;95968.16;;;21.00;48.07
32197;BME280;18697;42.770;23.400;2023-09-30T01:13:13;95969.06;;;20.84;48.71
32197;BME280;18697;42.770;23.400;2023-09-30T01:15:38;95961.22;;;20.72;47.34
32197;BME280;18697;42.770;23.400;2023-09-30T01:18:04;95953.84;;;20.63;48.37
32197;BME280;18697;42.770;23.400;2023-09-30T01:20:30;95959.50;;;20.57;49.14
32197;BME280;18697;42.770;23.400;2023-09-30T01:22:57;95962.25;;;20.69;49.58
32197;BME280;18697;42.770;23.400;2023-09-30T01:25:23;95962.91;;;20.80;49.21
32197;BME280;18697;42.770;23.400;2023-09-30T01:27:49;95967.06;;;20.79;48.65
32197;BME280;18697;42.770;23.400;2023-09-30T01:30:17;95963.13;;;20.88;48.85
32197;BME280;18697;42.770;23.400;2023-09-30T01:32:43;95962.34;;;20.87;48.67
32197;BME280;18697;42.770;23.400;2023-09-30T01:35:08;95963.66;;;20.86;48.71
32197;BME280;18697;42.770;23.400;2023-09-30T01:37:35;95960.59;;;20.84;48.35
32197;BME280;18697;42.770;23.400;2023-09-30T01:40:00;95958.59;;;20.38;48.61
32197;BME280;18697;42.770;23.400;2023-09-30T01:42:27;95966.25;;;19.85;49.85
32197;BME280;18697;42.770;23.400;2023-09-30T01:44:52;95968.59;;;19.81;50.90
32197;BME280;18697;42.770;23.400;2023-09-30T01:47:18;95954.81;;;19.55;50.95
32197;BME280;18697;42.770;23.400;2023-09-30T01:49:43;95959.41;;;19.58;52.75
32197;BME280;18697;42.770;23.400;2023-09-30T01:52:09;95950.38;;;19.82;52.08
32197;BME280;18697;42.770;23.400;2023-09-30T01:54:34;95960.03;;;20.04;51.65
32197;BME280;18697;42.770;23.400;2023-09-30T01:56:59;95961.22;;;20.19;51.09
32197;BME280;18697;42.770;23.400;2023-09-30T01:59:25;95962.19;;;20.39;50.29
32197;BME280;18697;42.770;23.400;2023-09-30T02:01:50;95953.13;;;20.51;50.01
32197;BME280;18697;42.770;23.400;2023-09-30T02:04:16;95947.19;;;20.60;49.79
32197;BME280;18697;42.770;23.400;2023-09-30T02:06:42;95960.16;;;20.75;49.58
32197;BME280;18697;42.770;23.400;2023-09-30T02:09:07;95957.25;;;20.86;49.35
32197;BME280;18697;42.770;23.400;2023-09-30T02:11:37;95958.44;;;20.96;49.02
32197;BME280;18697;42.770;23.400;2023-09-30T02:14:03;95952.28;;;20.97;48.38
32197;BME280;18697;42.770;23.400;2023-09-30T02:16:29;95960.13;;;21.10;48.85
32197;BME280;18697;42.770;23.400;2023-09-30T02:18:54;95954.19;;;21.14;48.72
32197;BME280;18697;42.770;23.400;2023-09-30T02:21:20;95951.09;;;21.17;48.10
32197;BME280;18697;42.770;23.400;2023-09-30T02:23:47;95946.72;;;21.16;48.26
32197;BME280;18697;42.770;23.400;2023-09-30T02:26:16;95956.25;;;21.13;48.13
32197;BME280;18697;42.770;23.400;2023-09-30T02:28:42;95953.50;;;21.02;48.10
32197;BME280;18697;42.770;23.400;2023-09-30T02:31:08;95955.84;;;20.98;48.54
32197;BME280;18697;42.770;23.400;2023-09-30T02:33:33;95943.59;;;20.90;48.68
32197;BME280;18697;42.770;23.400;2023-09-30T02:36:03;95956.66;;;20.93;48.72
32197;BME280;18697;42.770;23.400;2023-09-30T02:38:31;95953.31;;;20.94;48.80
32197;BME280;18697;42.770;23.400;2023-09-30T02:40:57;95941.47;;;21.02;48.53
32197;BME280;18697;42.770;23.400;2023-09-30T02:43:22;95946.47;;;21.14;48.36
32197;BME280;18697;42.770;23.400;2023-09-30T02:45:47;95943.63;;;21.20;48.15
32197;BME280;18697;42.770;23.400;2023-09-30T02:48:13;95941.56;;;21.20;47.56
32197;BME280;18697;42.770;23.400;2023-09-30T02:50:41;95940.78;;;21.20;47.54
32197;BME280;18697;42.770;23.400;2023-09-30T02:53:06;95945.44;;;21.17;47.43
32197;BME280;18697;42.770;23.400;2023-09-30T02:55:32;95951.66;;;21.10;47.65
32197;BME280;18697;42.770;23.400;2023-09-30T02:57:57;95950.59;;;21.13;48.05
32197;BME280;18697;42.770;23.400;2023-09-30T03:00:24;95945.44;;;21.17;47.80
32197;BME280;18697;42.770;23.400;2023-09-30T03:02:51;95951.59;;;21.21;47.63
32197;BME280;18697;42.770;23.400;2023-09-30T03:05:17;95944.94;;;21.13;47.51
32197;BME280;18697;42.770;23.400;2023-09-30T03:07:43;95942.66;;;21.12;47.33
32197;BME280;18697;42.770;23.400;2023-09-30T03:10:09;95957.44;;;20.93;47.63
32197;BME280;18697;42.770;23.400;2023-09-30T03:12:53;95952.31;;;20.92;48.45
32197;BME280;18697;42.770;23.400;2023-09-30T03:15:19;95945.94;;;20.86;48.25
32197;BME280;18697;42.770;23.400;2023-09-30T03:17:45;95948.47;;;20.89;48.39
32197;BME280;18697;42.770;23.400;2023-09-30T03:20:11;95947.22;;;20.85;48.15
32197;BME280;18697;42.770;23.400;2023-09-30T03:22:40;95948.63;;;20.73;48.58
32197;BME280;18697;42.770;23.400;2023-09-30T03:25:08;95959.94;;;20.73;48.72
32197;BME280;18697;42.770;23.400;2023-09-30T03:27:34;95959.03;;;20.53;48.80
32197;BME280;18697;42.770;23.400;2023-09-30T03:30:00;95957.31;;;20.39;49.33
32197;BME280;18697;42.770;23.400;2023-09-30T03:32:29;95956.22;;;20.48;49.41
32197;BME280;18697;42.770;23.400;2023-09-30T03:34:54;95954.38;;;20.56;48.82
32197;BME280;18697;42.770;23.400;2023-09-30T03:37:25;95953.63;;;20.55;49.12
32197;BME280;18697;42.770;23.400;2023-09-30T03:39:55;95954.63;;;20.58;49.13
32197;BME280;18697;42.770;23.400;2023-09-30T03:42:20;95961.53;;;20.62;49.04
32197;BME280;18697;42.770;23.400;2023-09-30T03:44:46;95956.19;;;20.53;48.75
32197;BME280;18697;42.770;23.400;2023-09-30T03:47:13;95963.03;;;20.69;48.99
32197;BME280;18697;42.770;23.400;2023-09-30T03:49:38;95964.34;;;20.62;48.41
32197;BME280;18697;42.770;23.400;2023-09-30T03:52:06;95965.22;;;20.46;48.47
32197;BME280;18697;42.770;23.400;2023-09-30T03:54:31;95967.31;;;20.34;49.08
32197;BME280;18697;42.770;23.400;2023-09-30T03:56:57;95960.13;;;20.39;49.37
32197;BME280;18697;42.770;23.400;2023-09-30T03:59:22;95963.72;;;20.40;49.12
32197;BME280;18697;42.770;23.400;2023-09-30T04:01:48;95963.91;;;20.53;49.03
32197;BME280;18697;42.770;23.400;2023-09-30T04:04:13;95964.38;;;20.57;48.16
32197;BME280;18697;42.770;23.400;2023-09-30T04:06:39;95965.69;;;20.56;47.93
32197;BME280;18697;42.770;23.400;2023-09-30T04:09:05;95962.81;;;20.61;48.21
32197;BME280;18697;42.770;23.400;2023-09-30T04:11:36;95959.78;;;20.54;48.88
32197;BME280;18697;42.770;23.400;2023-09-30T04:14:03;95957.50;;;20.52;48.62
32197;BME280;18697;42.770;23.400;2023-09-30T04:16:28;95958.81;;;20.46;47.81
32197;BME280;18697;42.770;23.400;2023-09-30T04:18:55;95959.41;;;20.22;48.71
32197;BME280;18697;42.770;23.400;2023-09-30T04:21:20;95967.63;;;20.20;48.77
32197;BME280;18697;42.770;23.400;2023-09-30T04:23:46;95978.16;;;20.19;49.74
32197;BME280;18697;42.770;23.400;2023-09-30T04:26:12;95979.91;;;20.28;49.47
32197;BME280;18697;42.770;23.400;2023-09-30T04:28:37;95967.84;;;20.27;49.43
32197;BME280;18697;42.770;23.400;2023-09-30T04:31:03;95955.56;;;18.33;50.26
32197;BME280;18697;42.770;23.400;2023-09-30T04:33:30;95970.69;;;18.58;53.42
32197;BME280;18697;42.770;23.400;2023-09-30T04:35:55;95976.38;;;18.80;51.74
32197;BME280;18697;42.770;23.400;2023-09-30T04:38:20;95973.06;;;19.15;51.96
32197;BME280;18697;42.770;23.400;2023-09-30T04:40:46;95978.88;;;19.56;52.86
32197;BME280;18697;42.770;23.400;2023-09-30T04:43:13;95987.81;;;19.77;54.76
32197;BME280;18697;42.770;23.400;2023-09-30T04:45:39;95986.00;;;19.80;56.09
32197;BME280;18697;42.770;23.400;2023-09-30T04:48:05;95977.28;;;19.89;52.62
32197;BME280;18697;42.770;23.400;2023-09-30T04:50:49;95985.72;;;19.89;50.69
32197;BME280;18697;42.770;23.400;2023-09-30T04:53:17;95980.34;;;19.85;51.50
32197;BME280;18697;42.770;23.400;2023-09-30T04:55:43;95988.78;;;19.96;49.50
32197;BME280;18697;42.770;23.400;2023-09-30T04:58:10;95986.56;;;19.67;47.80
32197;BME280;18697;42.770;23.400;2023-09-30T05:00:35;95985.78;;;19.50;52.00
32197;BME280;18697;42.770;23.400;2023-09-30T05:03:01;95992.72;;;19.43;49.49
32197;BME280;18697;42.770;23.400;2023-09-30T05:05:26;95992.47;;;19.35;52.63
32197;BME280;18697;42.770;23.400;2023-09-30T05:07:54;95988.88;;;19.41;50.42
32197;BME280;18697;42.770;23.400;2023-09-30T05:10:19;95997.09;;;19.16;52.89
32197;BME280;18697;42.770;23.400;2023-09-30T05:12:45;96005.03;;;19.29;51.87
32197;BME280;18697;42.770;23.400;2023-09-30T05:15:11;95998.88;;;19.58;51.56
32197;BME280;18697;42.770;23.400;2023-09-30T05:17:38;95994.44;;;19.85;50.49
32197;BME280;18697;42.770;23.400;2023-09-30T05:20:03;95999.94;;;20.19;50.04
32197;BME280;18697;42.770;23.400;2023-09-30T05:22:33;96004.75;;;20.35;49.47
32197;BME280;18697;42.770;23.400;2023-09-30T05:24:58;96004.16;;;20.53;48.93
32197;BME280;18697;42.770;23.400;2023-09-30T05:27:24;96007.56;;;20.41;48.53
32197;BME280;18697;42.770;23.400;2023-09-30T05:29:50;95998.28;;;20.51;48.40
32197;BME280;18697;42.770;23.400;2023-09-30T05:32:15;96002.13;;;20.54;48.76
32197;BME280;18697;42.770;23.400;2023-09-30T05:34:40;96010.47;;;20.71;47.96
32197;BME280;18697;42.770;23.400;2023-09-30T05:37:06;96013.72;;;20.80;47.92
32197;BME280;18697;42.770;23.400;2023-09-30T05:39:31;96019.03;;;20.95;47.50
32197;BME280;18697;42.770;23.400;2023-09-30T05:42:00;96016.88;;;20.77;47.15
32197;BME280;18697;42.770;23.400;2023-09-30T05:44:26;96025.19;;;20.58;48.35
32197;BME280;18697;42.770;23.400;2023-09-30T05:46:53;96016.28;;;20.37;48.90
32197;BME280;18697;42.770;23.400;2023-09-30T05:49:18;96014.94;;;19.91;50.50
32197;BME280;18697;42.770;23.400;2023-09-30T05:51:44;96020.22;;;20.12;50.41
32197;BME280;18697;42.770;23.400;2023-09-30T05:54:11;96022.47;;;20.30;49.89
32197;BME280;18697;42.770;23.400;2023-09-30T05:56:37;96016.97;;;20.60;49.57
32197;BME280;18697;42.770;23.400;2023-09-30T05:59:06;96021.66;;;20.87;48.81
32197;BME280;18697;42.770;23.400;2023-09-30T06:01:32;96033.00;;;21.17;48.77
32197;BME280;18697;42.770;23.400;2023-09-30T06:03:59;96026.66;;;21.41;47.83
32197;BME280;18697;42.770;23.400;2023-09-30T06:06:29;96026.91;;;21.68;46.94
32197;BME280;18697;42.770;23.400;2023-09-30T06:08:58;96028.75;;;21.89;47.07
32197;BME280;18697;42.770;23.400;2023-09-30T06:11:24;96034.25;;;22.06;46.70
32197;BME280;18697;42.770;23.400;2023-09-30T06:13:53;96027.59;;;22.28;45.93
32197;BME280;18697;42.770;23.400;2023-09-30T06:16:19;96030.84;;;22.32;45.85
32197;BME280;18697;42.770;23.400;2023-09-30T06:18:45;96035.53;;;22.48;45.19
32197;BME280;18697;42.770;23.400;2023-09-30T06:21:11;96040.69;;;22.69;45.49
32197;BME280;18697;42.770;23.400;2023-09-30T06:23:37;96037.53;;;22.72;45.11
32197;BME280;18697;42.770;23.400;2023-09-30T06:26:03;96041.59;;;22.77;45.23
32197;BME280;18697;42.770;23.400;2023-09-30T06:28:28;96043.63;;;22.82;44.70
32197;BME280;18697;42.770;23.400;2023-09-30T06:30:57;96046.97;;;22.99;44.20
32197;BME280;18697;42.770;23.400;2023-09-30T06:33:23;96039.19;;;23.18;43.88
32197;BME280;18697;42.770;23.400;2023-09-30T06:35:48;96042.03;;;23.18;43.92
32197;BME280;18697;42.770;23.400;2023-09-30T06:38:19;96038.44;;;23.18;43.24
32197;BME280;18697;42.770;23.400;2023-09-30T06:40:45;96038.78;;;23.27;43.36
32197;BME280;18697;42.770;23.400;2023-09-30T06:43:15;96044.91;;;23.00;44.90
32197;BME280;18697;42.770;23.400;2023-09-30T06:45:44;96042.56;;;22.23;46.68
32197;BME280;18697;42.770;23.400;2023-09-30T06:48:10;96039.78;;;21.39;49.42
32197;BME280;18697;42.770;23.400;2023-09-30T06:50:49;96035.94;;;21.90;48.87
32197;BME280;18697;42.770;23.400;2023-09-30T06:53:18;96050.88;;;22.15;46.86
32197;BME280;18697;42.770;23.400;2023-09-30T06:55:45;96048.84;;;22.53;46.88
32197;BME280;18697;42.770;23.400;2023-09-30T06:58:11;96051.63;;;22.78;46.80
32197;BME280;18697;42.770;23.400;2023-09-30T07:00:43;96055.59;;;23.07;45.72
32197;BME280;18697;42.770;23.400;2023-09-30T07:03:08;96040.72;;;23.19;45.99
32197;BME280;18697;42.770;23.400;2023-09-30T07:05:35;96048.50;;;23.32;44.60
32197;BME280;18697;42.770;23.400;2023-09-30T07:08:01;96054.63;;;23.55;44.08
32197;BME280;18697;42.770;23.400;2023-09-30T07:10:27;96056.41;;;23.71;43.85
32197;BME280;18697;42.770;23.400;2023-09-30T07:12:54;96052.94;;;23.91;43.36
32197;BME280;18697;42.770;23.400;2023-09-30T07:15:20;96056.53;;;24.05;42.32
32197;BME280;18697;42.770;23.400;2023-09-30T07:17:45;96050.66;;;24.16;41.80
32197;BME280;18697;42.770;23.400;2023-09-30T07:20:13;96053.00;;;24.31;41.75
32197;BME280;18697;42.770;23.400;2023-09-30T07:22:38;96052.94;;;24.57;40.54
32197;BME280;18697;42.770;23.400;2023-09-30T07:25:04;96051.75;;;24.53;40.68
32197;BME280;18697;42.770;23.400;2023-09-30T07:27:29;96053.22;;;24.46;40.83
32197;BME280;18697;42.770;23.400;2023-09-30T07:29:55;96063.88;;;24.67;40.81
32197;BME280;18697;42.770;23.400;2023-09-30T07:32:21;96053.03;;;24.78;40.80
32197;BME280;18697;42.770;23.400;2023-09-30T07:34:49;96065.03;;;24.98;40.42
32197;BME280;18697;42.770;23.400;2023-09-30T07:37:15;96055.28;;;25.06;40.21
32197;BME280;18697;42.770;23.400;2023-09-30T07:39:42;96057.31;;;25.19;39.96
32197;BME280;18697;42.770;23.400;2023-09-30T07:42:11;96053.72;;;25.39;40.35
32197;BME280;18697;42.770;23.400;2023-09-30T07:44:36;96058.25;;;24.87;39.18
32197;BME280;18697;42.770;23.400;2023-09-30T07:47:03;96053.69;;;24.71;39.74
32197;BME280;18697;42.770;23.400;2023-09-30T07:49:29;96046.28;;;24.68;40.23
32197;BME280;18697;42.770;23.400;2023-09-30T07:51:55;96055.28;;;24.93;40.28
32197;BME280;18697;42.770;23.400;2023-09-30T07:54:20;96059.53;;;25.13;39.82
32197;BME280;18697;42.770;23.400;2023-09-30T07:56:46;96062.53;;;25.49;38.70
32197;BME280;18697;42.770;23.400;2023-09-30T07:59:11;96060.91;;;25.74;38.37
32197;BME280;18697;42.770;23.400;2023-09-30T08:01:36;96057.53;;;26.04;39.05
32197;BME280;18697;42.770;23.400;2023-09-30T08:04:03;96058.41;;;26.20;37.75
32197;BME280;18697;42.770;23.400;2023-09-30T08:06:28;96068.94;;;26.33;37.38
32197;BME280;18697;42.770;23.400;2023-09-30T08:08:54;96054.66;;;26.54;36.94
32197;BME280;18697;42.770;23.400;2023-09-30T08:11:20;96057.28;;;26.95;37.11
32197;BME280;18697;42.770;23.400;2023-09-30T08:13:46;96061.84;;;26.91;36.02
32197;BME280;18697;42.770;23.400;2023-09-30T08:16:11;96057.25;;;26.88;36.69
32197;BME280;18697;42.770;23.400;2023-09-30T08:18:36;96059.03;;;26.98;36.02
32197;BME280;18697;42.770;23.400;2023-09-30T08:21:02;96053.63;;;27.23;35.96
32197;BME280;18697;42.770;23.400;2023-09-30T08:23:27;96059.50;;;27.25;36.02
32197;BME280;18697;42.770;23.400;2023-09-30T08:25:53;96052.50;;;27.34;35.25
32197;BME280;18697;42.770;23.400;2023-09-30T08:28:19;96057.22;;;26.80;35.47
32197;BME280;18697;42.770;23.400;2023-09-30T08:30:45;96066.88;;;27.05;35.37
32197;BME280;18697;42.770;23.400;2023-09-30T08:33:11;96056.53;;;26.95;34.73
32197;BME280;18697;42.770;23.400;2023-09-30T08:35:37;96055.47;;;26.33;35.19
32197;BME280;18697;42.770;23.400;2023-09-30T08:38:05;96047.63;;;26.26;34.55
32197;BME280;18697;42.770;23.400;2023-09-30T08:40:31;96045.13;;;25.94;36.67
32197;BME280;18697;42.770;23.400;2023-09-30T08:42:57;96037.72;;;25.91;35.95
32197;BME280;18697;42.770;23.400;2023-09-30T08:45:23;96031.84;;;26.25;36.71
32197;BME280;18697;42.770;23.400;2023-09-30T08:47:48;96024.38;;;26.14;37.86
32197;BME280;18697;42.770;23.400;2023-09-30T08:50:16;96021.31;;;26.69;38.84
32197;BME280;18697;42.770;23.400;2023-09-30T08:52:44;96024.16;;;26.77;36.65
32197;BME280;18697;42.770;23.400;2023-09-30T08:55:10;96022.00;;;26.98;37.21
32197;BME280;18697;42.770;23.400;2023-09-30T08:57:46;96026.59;;;27.09;36.78
32197;BME280;18697;42.770;23.400;2023-09-30T09:00:12;96038.09;;;26.96;34.58
32197;BME280;18697;42.770;23.400;2023-09-30T09:02:41;96029.41;;;27.01;33.61
32197;BME280;18697;42.770;23.400;2023-09-30T09:05:07;96026.03;;;26.67;34.58
32197;BME280;18697;42.770;23.400;2023-09-30T09:07:34;96027.69;;;26.55;34.74
32197;BME280;18697;42.770;23.400;2023-09-30T09:10:07;96029.22;;;26.56;34.18
32197;BME280;18697;42.770;23.400;2023-09-30T09:12:34;96026.81;;;26.67;34.59
32197;BME280;18697;42.770;23.400;2023-09-30T09:15:00;96028.16;;;26.74;33.76
32197;BME280;18697;42.770;23.400;2023-09-30T09:17:42;96037.69;;;26.84;31.94
32197;BME280;18697;42.770;23.400;2023-09-30T09:20:09;96031.09;;;26.53;32.76
32197;BME280;18697;42.770;23.400;2023-09-30T09:22:43;96025.47;;;26.68;33.17
32197;BME280;18697;42.770;23.400;2023-09-30T09:25:10;96024.78;;;26.18;33.36
32197;BME280;18697;42.770;23.400;2023-09-30T09:27:36;96009.19;;;26.12;35.31
32197;BME280;18697;42.770;23.400;2023-09-30T09:30:37;96007.84;;;26.85;33.83
32197;BME280;18697;42.770;23.400;2023-09-30T09:33:05;96015.94;;;27.09;32.83
32197;BME280;18697;42.770;23.400;2023-09-30T09:35:32;96017.91;;;27.30;32.89
32197;BME280;18697;42.770;23.400;2023-09-30T09:42:58;96030.31;;;27.70;28.93
32197;BME280;18697;42.770;23.400;2023-09-30T09:45:27;96035.25;;;27.77;29.75
32197;BME280;18697;42.770;23.400;2023-09-30T09:47:54;96038.66;;;27.61;27.52
32197;BME280;18697;42.770;23.400;2023-09-30T09:50:21;96042.44;;;27.48;28.45
32197;BME280;18697;42.770;23.400;2023-09-30T09:52:49;96031.06;;;27.71;27.67
32197;BME280;18697;42.770;23.400;2023-09-30T09:55:21;96035.44;;;27.87;26.67
32197;BME280;18697;42.770;23.400;2023-09-30T09:57:50;96048.75;;;27.77;27.03
32197;BME280;18697;42.770;23.400;2023-09-30T10:00:17;96045.88;;;27.46;26.24
32197;BME280;18697;42.770;23.400;2023-09-30T10:02:44;96038.97;;;27.19;27.06
32197;BME280;18697;42.770;23.400;2023-09-30T10:05:11;96034.00;;;27.12;27.24
32197;BME280;18697;42.770;23.400;2023-09-30T10:07:41;96025.88;;;27.31;28.03
32197;BME280;18697;42.770;23.400;2023-09-30T10:10:13;96029.91;;;27.43;27.25
32197;BME280;18697;42.770;23.400;2023-09-30T10:12:39;96020.56;;;27.50;27.99
32197;BME280;18697;42.770;23.400;2023-09-30T10:18:04;96031.25;;;27.65;26.18
32197;BME280;18697;42.770;23.400;2023-09-30T10:20:31;96027.44;;;27.47;27.00
32197;BME280;18697;42.770;23.400;2023-09-30T10:25:45;96008.81;;;27.69;27.04
32197;BME280;18697;42.770;23.400;2023-09-30T10:28:42;96024.03;;;27.64;26.36
32197;BME280;18697;42.770;23.400;2023-09-30T10:31:18;96003.69;;;27.91;26.77
32197;BME280;18697;42.770;23.400;2023-09-30T10:38:53;96012.78;;;27.36;26.30
32197;BME280;18697;42.770;23.400;2023-09-30T10:46:50;96006.09;;;27.18;27.23
32197;BME280;18697;42.770;23.400;2023-09-30T10:49:36;96002.31;;;27.38;27.14
32197;BME280;18697;42.770;23.400;2023-09-30T10:52:04;95991.13;;;27.48;26.45
32197;BME280;18697;42.770;23.400;2023-09-30T10:54:31;95992.59;;;27.49;27.37
32197;BME280;18697;42.770;23.400;2023-09-30T10:56:58;95989.72;;;27.11;26.46
32197;BME280;18697;42.770;23.400;2023-09-30T10:59:29;95991.91;;;26.90;27.74
32197;BME280;18697;42.770;23.400;2023-09-30T11:02:00;95982.31;;;27.15;27.54
32197;BME280;18697;42.770;23.400;2023-09-30T11:04:25;95981.38;;;27.21;27.71
32197;BME280;18697;42.770;23.400;2023-09-30T11:06:52;95973.41;;;27.34;27.90
32197;BME280;18697;42.770;23.400;2023-09-30T11:09:22;95962.19;;;27.36;28.07
32197;BME280;18697;42.770;23.400;2023-09-30T11:11:48;95964.28;;;27.36;27.66
32197;BME280;18697;42.770;23.400;2023-09-30T11:14:24;95973.41;;;27.19;27.84
32197;BME280;18697;42.770;23.400;2023-09-30T11:16:51;95954.78;;;27.33;28.18
32197;BME280;18697;42.770;23.400;2023-09-30T11:19:18;95948.31;;;27.48;27.47
32197;BME280;18697;42.770;23.400;2023-09-30T11:21:46;95949.06;;;27.48;27.37
32197;BME280;18697;42.770;23.400;2023-09-30T11:24:14;95949.47;;;27.45;27.52
32197;BME280;18697;42.770;23.400;2023-09-30T11:26:39;95942.03;;;27.57;27.26
32197;BME280;18697;42.770;23.400;2023-09-30T11:29:08;95943.75;;;27.68;27.22
32197;BME280;18697;42.770;23.400;2023-09-30T11:31:44;95946.41;;;27.81;27.90
32197;BME280;18697;42.770;23.400;2023-09-30T11:34:10;95940.13;;;27.90;26.70
32197;BME280;18697;42.770;23.400;2023-09-30T11:36:54;95944.72;;;27.47;26.72
32197;BME280;18697;42.770;23.400;2023-09-30T11:39:25;95947.34;;;27.53;27.06
32197;BME280;18697;42.770;23.400;2023-09-30T11:41:51;95941.28;;;27.72;27.93
32197;BME280;18697;42.770;23.400;2023-09-30T11:44:17;95943.56;;;27.66;27.20
32197;BME280;18697;42.770;23.400;2023-09-30T11:46:54;95939.19;;;27.72;27.05
32197;BME280;18697;42.770;23.400;2023-09-30T11:49:32;95943.19;;;27.69;26.71
32197;BME280;18697;42.770;23.400;2023-09-30T11:52:02;95930.06;;;27.81;27.44
32197;BME280;18697;42.770;23.400;2023-09-30T11:54:35;95934.03;;;27.94;27.10
32197;BME280;18697;42.770;23.400;2023-09-30T11:57:07;95927.91;;;28.05;26.91
32197;BME280;18697;42.770;23.400;2023-09-30T11:59:35;95936.69;;;27.92;26.29
32197;BME280;18697;42.770;23.400;2023-09-30T12:02:06;95922.59;;;28.01;28.12
32197;BME280;18697;42.770;23.400;2023-09-30T12:04:34;95916.66;;;28.22;27.36
32197;BME280;18697;42.770;23.400;2023-09-30T12:07:00;95917.38;;;28.30;26.59
32197;BME280;18697;42.770;23.400;2023-09-30T12:09:25;95925.25;;;28.07;26.87
32197;BME280;18697;42.770;23.400;2023-09-30T12:11:54;95917.28;;;27.90;26.57
32197;BME280;18697;42.770;23.400;2023-09-30T12:14:22;95914.25;;;27.50;27.20
32197;BME280;18697;42.770;23.400;2023-09-30T12:16:48;95905.53;;;27.63;27.31
32197;BME280;18697;42.770;23.400;2023-09-30T12:19:14;95896.00;;;27.76;27.64
32197;BME280;18697;42.770;23.400;2023-09-30T12:21:41;95907.81;;;27.72;26.92
32197;BME280;18697;42.770;23.400;2023-09-30T12:24:07;95902.66;;;27.71;27.62
32197;BME280;18697;42.770;23.400;2023-09-30T12:26:34;95906.25;;;27.56;26.76
32197;BME280;18697;42.770;23.400;2023-09-30T12:29:00;95894.84;;;27.56;27.00
32197;BME280;18697;42.770;23.400;2023-09-30T12:31:25;95897.38;;;27.22;26.86
32197;BME280;18697;42.770;23.400;2023-09-30T12:33:51;95889.56;;;27.45;27.16
32197;BME280;18697;42.770;23.400;2023-09-30T12:36:21;95886.31;;;27.64;26.91
32197;BME280;18697;42.770;23.400;2023-09-30T12:38:47;95891.41;;;27.88;27.32
32197;BME280;18697;42.770;23.400;2023-09-30T12:41:12;95888.16;;;27.92;26.96
32197;BME280;18697;42.770;23.400;2023-09-30T12:43:38;95881.69;;;27.91;27.87
32197;BME280;18697;42.770;23.400;2023-09-30T12:46:03;95887.25;;;27.74;27.58
32197;BME280;18697;42.770;23.400;2023-09-30T12:48:30;95884.22;;;27.64;26.34
32197;BME280;18697;42.770;23.400;2023-09-30T12:50:56;95876.44;;;27.65;27.22
32197;BME280;18697;42.770;23.400;2023-09-30T12:53:21;95867.09;;;27.64;27.49
32197;BME280;18697;42.770;23.400;2023-09-30T12:55:46;95864.44;;;27.51;28.32
32197;BME280;18697;42.770;23.400;2023-09-30T12:58:12;95867.47;;;27.68;27.94
32197;BME280;18697;42.770;23.400;2023-09-30T13:00:37;95864.44;;;27.66;27.34
32197;BME280;18697;42.770;23.400;2023-09-30T13:03:03;95865.16;;;27.90;28.56
32197;BME280;18697;42.770;23.400;2023-09-30T13:05:29;95868.38;;;27.94;27.36
32197;BME280;18697;42.770;23.400;2023-09-30T13:07:58;95863.47;;;27.71;26.81
32197;BME280;18697;42.770;23.400;2023-09-30T13:10:23;95869.94;;;27.49;27.29